Canberra, Australia
Current Conditions -  °F | °C
As of 7:30 AM on Monday 26 Jan 2015 (Local Time) from YSCB Reporting Station
Broken Clouds Broken Clouds  
Wind Chill: 57°   Ceiling: 1600
Heat Index: 57°   Visibility: 6mi
Dew Point: 52°   Wind: 6mph
Humidity: 82%   Direction: 100°E
Pressure: 29.94"   Gusts: NA
Location:  35.31°S, 149.13°E
Report Text: YSCB 252030Z 10005KT 9999 BKN016 SCT045 14/11 Q1014 FM2030 07005KT 9999 SCT016 SCT045 TEMPO 2030/2200 BKN016
Loading
Personal Weather Stations






























Interactive Weather Map New forecast layout! Learn more

10-Day Weather Forecast

Advertisements
Track Severe Weather on mobile